Time;durP1;ratioP1;P1;durP2;ratioP2;P2;SDS_P1;SDS_P2;PMS_P1;PMS_P2;Temp;Humidity;BMP_temperature;BMP_pressure;BME280_temperature;BME280_humidity;BME280_pressure;Samples;Min_cycle;Max_cycle;Signal;HPM_P1;HPM_P2
2021/08/25 00:00:42;;;;;;;16.33;12.13;;;;;;;17.46;84.40;100457.69;1690852;82;21052;-68
2021/08/25 00:03:10;;;;;;;13.67;12.20;;;;;;;17.52;84.67;100455.12;1689809;82;21826;-69
2021/08/25 00:05:36;;;;;;;15.37;11.97;;;;;;;17.55;84.73;100448.55;1686349;82;21567;-69
2021/08/25 00:08:04;;;;;;;12.83;11.07;;;;;;;17.59;84.72;100444.13;1698214;82;21056;-69
2021/08/25 00:10:31;;;;;;;15.00;12.17;;;;;;;17.59;84.79;100429.83;1695529;82;21100;-69
2021/08/25 00:12:59;;;;;;;15.07;11.90;;;;;;;17.49;85.10;100425.47;1691965;84;21895;-69
2021/08/25 00:15:28;;;;;;;13.50;11.77;;;;;;;17.40;85.46;100428.64;1694723;82;21033;-68
2021/08/25 00:17:55;;;;;;;15.33;11.87;;;;;;;17.34;85.82;100419.06;1704706;84;21097;-69
2021/08/25 00:20:21;;;;;;;14.20;12.10;;;;;;;17.30;86.35;100412.69;1679358;82;21061;-69
2021/08/25 00:22:48;;;;;;;17.13;12.87;;;;;;;17.24;86.88;100404.45;1683969;82;21167;-69
2021/08/25 00:25:14;;;;;;;14.83;11.37;;;;;;;17.19;87.44;100391.09;1685104;82;21017;-69
2021/08/25 00:27:41;;;;;;;17.17;13.63;;;;;;;17.15;87.97;100391.46;1681834;84;21503;-69
2021/08/25 00:30:09;;;;;;;16.83;13.10;;;;;;;17.08;88.37;100384.58;1695648;82;21721;-68
2021/08/25 00:32:35;;;;;;;17.20;14.23;;;;;;;17.04;88.69;100382.22;1694682;84;21060;-68
2021/08/25 00:35:02;;;;;;;14.37;12.83;;;;;;;17.00;89.03;100380.45;1698126;82;21519;-68
2021/08/25 00:37:28;;;;;;;17.40;14.33;;;;;;;17.00;89.40;100387.19;1682065;82;21124;-67
2021/08/25 00:39:55;;;;;;;15.37;12.77;;;;;;;17.00;89.60;100385.28;1694659;82;22401;-67
2021/08/25 00:42:22;;;;;;;15.93;13.40;;;;;;;17.02;89.70;100389.84;1676455;84;21598;-68
2021/08/25 00:44:48;;;;;;;15.50;13.73;;;;;;;17.07;89.73;100397.02;1682084;83;21063;-68
2021/08/25 00:47:16;;;;;;;15.90;13.60;;;;;;;17.11;89.75;100400.17;1669903;83;21041;-68
2021/08/25 00:49:45;;;;;;;17.93;13.27;;;;;;;17.18;89.60;100403.00;1670718;83;21079;-69
2021/08/25 00:52:12;;;;;;;16.83;13.33;;;;;;;17.17;89.46;100409.48;1674691;84;21464;-71
2021/08/25 00:54:39;;;;;;;14.70;12.87;;;;;;;17.15;89.17;100421.16;1681061;83;21037;-70
2021/08/25 00:57:05;;;;;;;16.03;12.93;;;;;;;17.15;89.06;100430.59;1680844;82;21093;-71
2021/08/25 00:59:33;;;;;;;16.10;13.67;;;;;;;17.10;88.95;100440.37;1694980;83;21523;-71
2021/08/25 01:02:18;;;;;;;15.97;13.40;;;;;;;17.06;89.15;100460.98;1684132;82;21068;-69
2021/08/25 01:04:52;;;;;;;16.70;14.10;;;;;;;17.01;89.34;100475.95;1729714;80;21809;-68
2021/08/25 01:07:19;;;;;;;19.37;14.73;;;;;;;16.95;89.73;100465.56;1725316;81;21492;-67
2021/08/25 01:09:46;;;;;;;16.30;12.93;;;;;;;16.91;89.98;100450.50;1717862;80;21167;-69
2021/08/25 01:12:14;;;;;;;17.43;14.53;;;;;;;16.93;90.14;100444.27;1715762;81;21044;-68
2021/08/25 01:14:44;;;;;;;17.60;14.13;;;;;;;16.96;90.26;100434.77;1734543;80;21032;-68
2021/08/25 01:17:11;;;;;;;15.67;13.90;;;;;;;17.00;90.25;100432.50;1705288;83;21520;-68
2021/08/25 01:19:49;;;;;;;15.67;13.60;;;;;;;17.07;90.25;100426.70;1695696;83;21482;-68
2021/08/25 01:22:20;;;;;;;18.20;14.00;;;;;;;17.13;90.34;100434.14;1642004;84;21053;-69
2021/08/25 01:24:48;;;;;;;17.62;14.87;;;;;;;17.14;90.43;100431.67;1675270;83;21142;-68
2021/08/25 01:27:17;;;;;;;18.70;14.97;;;;;;;17.16;90.65;100438.93;1690606;82;21065;-68
2021/08/25 01:29:43;;;;;;;17.10;14.00;;;;;;;17.17;90.77;100431.07;1698729;82;21143;-69
2021/08/25 01:32:10;;;;;;;18.93;14.63;;;;;;;17.20;90.85;100423.72;1695162;82;21061;-70
2021/08/25 01:34:56;;;;;;;17.70;13.73;;;;;;;17.21;90.99;100422.08;1696731;82;21116;-71
2021/08/25 01:37:24;;;;;;;16.43;13.43;;;;;;;17.18;91.33;100408.40;1686417;83;21036;-71
2021/08/25 01:39:50;;;;;;;16.03;13.87;;;;;;;17.08;91.73;100403.47;1692735;82;21096;-71
2021/08/25 01:42:18;;;;;;;16.50;13.13;;;;;;;17.02;92.06;100401.19;1688709;82;22177;-71
2021/08/25 01:44:46;;;;;;;21.13;15.33;;;;;;;16.98;92.33;100399.65;1689976;82;21516;-72
2021/08/25 01:47:13;;;;;;;16.73;13.93;;;;;;;16.94;92.82;100395.15;1675743;82;21077;-71
2021/08/25 01:49:44;;;;;;;17.40;14.40;;;;;;;16.92;93.17;100395.46;1685074;83;21044;-71
2021/08/25 01:52:13;;;;;;;17.77;14.13;;;;;;;16.89;93.31;100393.37;1727233;81;21052;-72
2021/08/25 01:54:43;;;;;;;16.30;13.90;;;;;;;16.86;93.41;100386.67;1740532;80;21113;-72
2021/08/25 01:57:09;;;;;;;16.53;14.30;;;;;;;16.85;93.59;100374.85;1730446;80;21069;-72
2021/08/25 01:59:37;;;;;;;15.90;14.23;;;;;;;16.79;93.86;100354.48;1719944;80;21207;-72
2021/08/25 02:02:04;;;;;;;18.70;16.07;;;;;;;16.71;94.16;100351.90;1728971;80;21068;-71
2021/08/25 02:04:32;;;;;;;19.67;15.07;;;;;;;16.71;94.56;100355.95;1732715;80;21079;-71
2021/08/25 02:06:58;;;;;;;14.93;13.33;;;;;;;16.73;94.78;100354.31;1740139;80;21117;-71
2021/08/25 02:09:24;;;;;;;16.70;13.10;;;;;;;16.73;94.76;100349.70;1736876;81;21023;-71
2021/08/25 02:11:51;;;;;;;17.07;13.50;;;;;;;16.73;94.70;100341.62;1730546;80;21083;-71
2021/08/25 02:14:18;;;;;;;19.40;16.03;;;;;;;16.74;94.66;100355.89;1728978;80;21041;-72
2021/08/25 02:16:46;;;;;;;15.53;13.60;;;;;;;16.77;94.68;100366.11;1733402;80;21067;-72
2021/08/25 02:19:13;;;;;;;17.90;14.90;;;;;;;16.79;94.49;100367.97;1734332;80;21148;-72
2021/08/25 02:21:40;;;;;;;18.33;14.97;;;;;;;16.83;94.37;100363.55;1714632;81;21009;-72
2021/08/25 02:24:07;;;;;;;21.37;15.30;;;;;;;16.86;94.33;100352.16;1722910;80;21107;-72
2021/08/25 02:26:33;;;;;;;20.87;14.53;;;;;;;16.88;94.26;100347.27;1740691;80;21093;-72
2021/08/25 02:29:00;;;;;;;15.47;12.20;;;;;;;16.91;94.25;100339.89;1734970;80;21092;-72
2021/08/25 02:31:28;;;;;;;16.03;13.80;;;;;;;16.87;94.27;100329.47;1733368;80;21538;-72
2021/08/25 02:33:55;;;;;;;15.73;13.10;;;;;;;16.84;94.33;100324.68;1731800;80;20933;-73
2021/08/25 02:36:21;;;;;;;17.53;13.87;;;;;;;16.83;94.33;100319.84;1735101;79;21038;-72
2021/08/25 02:38:49;;;;;;;18.10;13.60;;;;;;;16.82;94.19;100325.55;1743703;80;21044;-72
2021/08/25 02:41:17;;;;;;;19.57;14.17;;;;;;;16.79;94.20;100335.60;1731133;80;21659;-72
2021/08/25 02:43:44;;;;;;;16.50;14.10;;;;;;;16.80;94.32;100335.28;1715731;80;21814;-72
2021/08/25 02:46:11;;;;;;;15.17;12.40;;;;;;;16.83;94.37;100337.93;1724972;80;21487;-72
2021/08/25 02:48:38;;;;;;;18.70;13.10;;;;;;;16.86;94.41;100338.12;1733754;80;21053;-72
2021/08/25 02:51:05;;;;;;;18.30;14.83;;;;;;;16.85;94.38;100338.44;1736959;82;21065;-72
2021/08/25 02:53:32;;;;;;;18.10;14.70;;;;;;;16.81;94.57;100335.55;1724619;80;21599;-72
2021/08/25 02:55:59;;;;;;;15.43;13.23;;;;;;;16.80;94.93;100343.93;1738990;80;22002;-72
2021/08/25 02:58:25;;;;;;;15.37;12.67;;;;;;;16.81;95.19;100345.52;1737556;80;21155;-73
2021/08/25 03:00:54;;;;;;;18.33;14.63;;;;;;;16.81;95.19;100346.87;1737123;81;21045;-72
2021/08/25 03:03:21;;;;;;;16.83;14.67;;;;;;;16.80;95.28;100346.63;1730056;80;21552;-72
2021/08/25 03:05:48;;;;;;;15.17;13.10;;;;;;;16.80;95.27;100339.33;1739984;80;21156;-72
2021/08/25 03:08:15;;;;;;;16.23;14.30;;;;;;;16.82;95.25;100335.00;1726581;80;21525;-72
2021/08/25 03:10:41;;;;;;;17.37;14.03;;;;;;;16.82;95.36;100337.70;1737720;80;20981;-72
2021/08/25 03:13:09;;;;;;;16.00;13.17;;;;;;;16.84;95.40;100330.08;1735941;80;21040;-72
2021/08/25 03:15:36;;;;;;;17.77;15.47;;;;;;;16.82;95.32;100334.44;1737165;81;21052;-72
2021/08/25 03:18:02;;;;;;;16.80;14.97;;;;;;;16.83;95.54;100336.58;1737411;80;21032;-72
2021/08/25 03:20:30;;;;;;;16.63;14.83;;;;;;;16.88;95.59;100337.83;1740099;80;21084;-72
2021/08/25 03:22:57;;;;;;;17.33;15.00;;;;;;;16.93;95.60;100335.56;1722957;80;21119;-72
2021/08/25 03:25:23;;;;;;;16.33;14.37;;;;;;;16.96;95.52;100332.25;1718449;80;22155;-72
2021/08/25 03:27:50;;;;;;;16.37;13.70;;;;;;;16.99;95.40;100332.99;1737083;80;21099;-72
2021/08/25 03:30:16;;;;;;;17.53;15.13;;;;;;;16.97;95.25;100331.14;1722481;80;21063;-72
2021/08/25 03:32:43;;;;;;;16.87;14.87;;;;;;;16.96;95.21;100326.86;1739219;80;21548;-71
2021/08/25 03:35:10;;;;;;;16.97;15.00;;;;;;;16.97;95.18;100333.84;1736116;79;21002;-72
2021/08/25 03:37:38;;;;;;;17.00;14.60;;;;;;;16.96;95.04;100326.30;1725401;81;22191;-72
2021/08/25 03:40:10;;;;;;;17.30;15.03;;;;;;;16.94;95.05;100330.40;1730161;80;21021;-72
2021/08/25 03:42:37;;;;;;;15.57;13.97;;;;;;;16.94;95.13;100341.98;1706543;82;21045;-71
2021/08/25 03:45:05;;;;;;;26.10;15.83;;;;;;;16.95;95.14;100342.80;1734476;80;21106;-71
2021/08/25 03:47:31;;;;;;;18.80;15.23;;;;;;;16.97;95.09;100336.53;1748152;80;21031;-71
2021/08/25 03:49:58;;;;;;;16.77;14.97;;;;;;;16.98;95.01;100333.55;1727438;80;21205;-71
2021/08/25 03:52:25;;;;;;;16.97;14.23;;;;;;;16.97;94.93;100335.98;1734732;82;21132;-71
2021/08/25 03:54:53;;;;;;;17.30;15.40;;;;;;;16.95;94.94;100341.45;1723471;80;21075;-72
2021/08/25 03:57:20;;;;;;;17.33;15.53;;;;;;;16.94;94.98;100347.38;1734482;80;21090;-71
2021/08/25 03:59:47;;;;;;;17.50;15.10;;;;;;;16.97;95.00;100337.33;1734174;80;21589;-72
2021/08/25 04:02:14;;;;;;;16.00;14.33;;;;;;;16.99;94.91;100335.13;1721024;80;21044;-71
2021/08/25 04:04:41;;;;;;;14.70;13.20;;;;;;;17.00;94.83;100326.48;1730629;80;21083;-72
2021/08/25 04:07:08;;;;;;;17.73;15.07;;;;;;;16.99;94.80;100331.64;1740776;80;21598;-72
2021/08/25 04:09:36;;;;;;;16.50;14.70;;;;;;;16.97;94.80;100331.94;1710043;80;21167;-71
2021/08/25 04:12:04;;;;;;;15.20;13.60;;;;;;;16.97;94.91;100330.58;1730473;82;21591;-71
2021/08/25 04:14:30;;;;;;;15.47;13.87;;;;;;;16.98;94.90;100331.38;1717498;80;22480;-72
2021/08/25 04:16:57;;;;;;;15.47;13.23;;;;;;;16.97;94.99;100320.34;1740212;80;21083;-72
2021/08/25 04:19:24;;;;;;;17.50;15.60;;;;;;;16.94;95.07;100321.75;1726421;80;21081;-71
2021/08/25 04:21:51;;;;;;;16.40;14.37;;;;;;;16.91;95.14;100313.47;1735342;80;21317;-71
2021/08/25 04:24:18;;;;;;;20.30;15.70;;;;;;;16.90;95.28;100314.58;1721110;80;21084;-72
2021/08/25 04:26:45;;;;;;;16.97;15.27;;;;;;;16.90;95.49;100316.72;1741902;80;21074;-72
2021/08/25 04:29:12;;;;;;;16.50;14.00;;;;;;;16.95;95.64;100322.02;1735404;80;21081;-72
2021/08/25 04:31:39;;;;;;;14.40;12.83;;;;;;;17.00;95.59;100321.88;1719185;80;21157;-72
2021/08/25 04:34:05;;;;;;;16.40;13.53;;;;;;;17.03;95.45;100319.13;1740235;80;21555;-72
2021/08/25 04:36:33;;;;;;;17.40;14.57;;;;;;;17.08;95.38;100321.16;1737976;80;21040;-72
2021/08/25 04:39:01;;;;;;;15.60;13.97;;;;;;;17.11;95.30;100315.16;1729203;80;21088;-72
2021/08/25 04:41:28;;;;;;;15.40;13.83;;;;;;;17.19;95.22;100308.77;1727218;80;21052;-72
2021/08/25 04:43:56;;;;;;;16.13;14.43;;;;;;;17.27;95.01;100305.32;1735626;80;21163;-72
2021/08/25 04:46:24;;;;;;;17.77;14.47;;;;;;;17.30;94.76;100304.70;1737188;80;21166;-72
2021/08/25 04:48:50;;;;;;;14.90;13.10;;;;;;;17.35;94.52;100308.64;1732562;81;21244;-72
2021/08/25 04:51:16;;;;;;;17.37;14.93;;;;;;;17.41;94.27;100304.72;1734762;80;21575;-72
2021/08/25 04:53:43;;;;;;;16.50;14.77;;;;;;;17.46;93.88;100314.02;1726902;80;21655;-72
2021/08/25 04:56:10;;;;;;;16.07;12.83;;;;;;;17.51;93.63;100308.50;1727481;80;21093;-72
2021/08/25 04:58:37;;;;;;;16.57;14.80;;;;;;;17.60;93.50;100311.23;1739898;80;21176;-72
2021/08/25 05:01:07;;;;;;;16.30;14.10;;;;;;;17.69;93.33;100304.54;1722184;81;21069;-72
2021/08/25 05:03:37;;;;;;;16.33;13.57;;;;;;;17.78;93.11;100310.81;1722238;80;21096;-72
2021/08/25 05:06:10;;;;;;;17.53;12.97;;;;;;;17.87;92.67;100309.48;1719702;80;21331;-72
2021/08/25 05:08:37;;;;;;;16.37;14.20;;;;;;;17.94;91.91;100314.70;1734314;80;21036;-72
2021/08/25 05:11:04;;;;;;;15.27;13.33;;;;;;;18.00;91.14;100321.56;1731669;80;21137;-72
2021/08/25 05:13:31;;;;;;;16.63;14.00;;;;;;;18.04;90.46;100322.52;1733381;82;21151;-72
2021/08/25 05:15:59;;;;;;;15.67;13.37;;;;;;;18.11;90.04;100319.92;1738487;80;21135;-71
2021/08/25 05:18:27;;;;;;;16.23;14.03;;;;;;;18.18;89.62;100321.61;1744578;80;21064;-72
2021/08/25 05:20:54;;;;;;;15.83;13.83;;;;;;;18.24;89.16;100317.10;1723064;80;21069;-72
2021/08/25 05:23:21;;;;;;;15.47;13.13;;;;;;;18.29;88.57;100318.85;1727342;80;21100;-72
2021/08/25 05:25:48;;;;;;;17.13;14.63;;;;;;;18.32;88.19;100315.52;1718192;80;20955;-73
2021/08/25 05:28:15;;;;;;;16.17;14.43;;;;;;;18.37;88.14;100315.39;1739086;80;21044;-72
2021/08/25 05:30:42;;;;;;;16.50;14.23;;;;;;;18.43;88.08;100320.10;1733621;80;21182;-72
2021/08/25 05:33:08;;;;;;;17.57;13.50;;;;;;;18.45;87.48;100317.30;1735002;80;21697;-73
2021/08/25 05:35:35;;;;;;;19.57;14.50;;;;;;;18.44;87.08;100310.30;1737586;81;21957;-72
2021/08/25 05:38:02;;;;;;;16.83;13.80;;;;;;;18.39;86.90;100311.00;1737599;80;21033;-72
2021/08/25 05:40:29;;;;;;;14.60;13.00;;;;;;;18.37;87.19;100305.13;1733488;80;21080;-73
2021/08/25 05:42:57;;;;;;;16.50;13.37;;;;;;;18.33;87.38;100307.67;1722771;80;21108;-72
2021/08/25 05:45:24;;;;;;;15.93;13.83;;;;;;;18.28;87.45;100299.69;1723969;81;21130;-73
2021/08/25 05:47:52;;;;;;;14.70;13.15;;;;;;;18.19;87.66;100301.57;1724808;80;21702;-72
2021/08/25 05:50:19;;;;;;;16.73;14.03;;;;;;;18.12;87.80;100303.94;1720689;80;21016;-72
2021/08/25 05:52:45;;;;;;;14.57;13.07;;;;;;;18.07;87.95;100302.75;1722784;81;21509;-73
2021/08/25 05:55:12;;;;;;;16.63;14.83;;;;;;;18.07;88.13;100293.29;1736539;80;21031;-72
2021/08/25 05:57:45;;;;;;;16.10;13.97;;;;;;;18.05;88.29;100292.23;1698789;83;21112;-72
2021/08/25 06:00:09;;;;;;;15.60;13.60;;;;;;;18.09;88.56;100297.25;1680506;83;21960;-72
2021/08/25 06:02:36;;;;;;;16.53;14.23;;;;;;;18.18;88.54;100305.39;1675364;83;21087;-71
2021/08/25 06:05:02;;;;;;;16.53;14.00;;;;;;;18.28;88.69;100299.69;1669283;83;21119;-71
2021/08/25 06:07:29;;;;;;;18.47;15.43;;;;;;;18.37;88.80;100305.92;1676222;84;21485;-71
2021/08/25 06:09:56;;;;;;;16.83;15.03;;;;;;;18.44;88.78;100299.48;1678272;83;21022;-72
2021/08/25 06:12:23;;;;;;;17.10;14.10;;;;;;;18.56;88.43;100302.12;1679894;83;22526;-72
2021/08/25 06:14:49;;;;;;;15.83;13.53;;;;;;;18.64;88.00;100303.48;1667259;83;21567;-72
2021/08/25 06:17:16;;;;;;;14.73;13.07;;;;;;;18.75;87.38;100298.58;1670207;83;21086;-71
2021/08/25 06:19:43;;;;;;;15.57;13.37;;;;;;;18.82;86.76;100300.28;1679004;83;21089;-71
2021/08/25 06:22:10;;;;;;;15.77;13.53;;;;;;;18.89;86.23;100303.30;1663156;83;21617;-71
2021/08/25 06:24:36;;;;;;;16.30;14.50;;;;;;;18.92;85.97;100298.61;1676834;83;21621;-72
2021/08/25 06:27:04;;;;;;;14.77;13.03;;;;;;;19.00;85.88;100302.98;1675149;83;21623;-75
2021/08/25 06:29:30;;;;;;;15.30;13.77;;;;;;;19.07;85.63;100300.02;1677970;83;21188;-72
2021/08/25 06:31:57;;;;;;;18.50;15.60;;;;;;;19.16;85.54;100300.02;1675172;83;21120;-72
2021/08/25 06:34:24;;;;;;;16.07;13.83;;;;;;;19.33;85.78;100305.95;1668095;83;21115;-73
2021/08/25 06:36:51;;;;;;;15.97;14.30;;;;;;;19.50;85.20;100306.47;1670612;83;21117;-73
2021/08/25 06:39:18;;;;;;;16.47;14.27;;;;;;;19.66;85.03;100315.14;1667482;83;21551;-73
2021/08/25 06:41:45;;;;;;;15.70;13.00;;;;;;;19.82;84.61;100311.91;1670911;83;21554;-73
2021/08/25 06:44:12;;;;;;;16.97;13.57;;;;;;;19.91;83.68;100313.47;1679828;83;21131;-72
2021/08/25 06:46:39;;;;;;;14.87;12.53;;;;;;;20.01;82.68;100313.66;1679866;83;21202;-73
2021/08/25 06:49:06;;;;;;;14.97;12.97;;;;;;;20.11;82.13;100311.94;1673899;83;21444;-72
2021/08/25 06:51:33;;;;;;;13.37;11.97;;;;;;;20.21;81.45;100308.63;1666021;83;21626;-72
2021/08/25 06:54:00;;;;;;;14.83;12.87;;;;;;;20.27;80.51;100309.47;1672090;83;21110;-75
2021/08/25 06:56:27;;;;;;;13.73;12.07;;;;;;;20.35;80.05;100317.30;1665467;83;21087;-75
2021/08/25 06:58:54;;;;;;;13.63;12.20;;;;;;;20.44;79.78;100317.27;1658723;84;22222;-76
2021/08/25 07:01:21;;;;;;;13.93;11.23;;;;;;;20.56;79.24;100323.57;1696434;83;21906;-74
2021/08/25 07:03:48;;;;;;;13.93;11.87;;;;;;;20.63;78.18;100318.19;1692755;83;21030;-75
2021/08/25 07:06:15;;;;;;;13.23;11.37;;;;;;;20.69;77.36;100322.30;1669429;83;21095;-75
2021/08/25 07:08:42;;;;;;;14.27;12.03;;;;;;;20.75;76.87;100326.41;1673402;84;21055;-75
2021/08/25 07:11:09;;;;;;;13.37;11.93;;;;;;;20.84;76.43;100327.93;1689176;82;21491;-74
2021/08/25 07:13:36;;;;;;;14.10;12.40;;;;;;;20.93;75.94;100325.72;1688428;82;21764;-73
2021/08/25 07:16:03;;;;;;;13.73;11.47;;;;;;;20.95;75.44;100324.24;1697059;82;22137;-73
2021/08/25 07:18:31;;;;;;;15.20;12.60;;;;;;;20.99;75.49;100325.73;1697394;83;21030;-73
2021/08/25 07:20:57;;;;;;;13.33;11.37;;;;;;;21.05;75.31;100327.91;1696539;82;21065;-73
2021/08/25 07:23:24;;;;;;;14.17;11.60;;;;;;;21.12;74.96;100327.37;1690477;82;21036;-73
2021/08/25 07:25:50;;;;;;;15.03;11.70;;;;;;;21.23;74.59;100327.20;1696078;82;21529;-71
2021/08/25 07:30:40;;;;;;;13.13;11.47;;;;;;;21.32;73.49;100314.87;1762195;78;27382;-73
2021/08/25 07:33:14;;;;;;;13.57;11.67;;;;;;;21.26;73.77;100321.67;1764523;79;21123;-72
2021/08/25 07:35:48;;;;;;;14.07;12.23;;;;;;;21.26;73.69;100321.11;1756832;79;21539;-73
2021/08/25 07:38:16;;;;;;;15.07;12.87;;;;;;;21.34;74.18;100324.85;1750720;81;21345;-73
2021/08/25 07:40:43;;;;;;;12.00;10.70;;;;;;;21.51;74.63;100329.34;1744808;81;21129;-73
2021/08/25 07:43:10;;;;;;;15.20;11.83;;;;;;;21.61;72.94;100332.20;1751738;81;21081;-73
2021/08/25 07:45:38;;;;;;;12.63;11.13;;;;;;;21.53;72.38;100325.73;1749981;79;21083;-72
2021/08/25 07:48:05;;;;;;;12.93;11.53;;;;;;;21.46;72.04;100328.22;1751427;79;21121;-74
2021/08/25 07:50:32;;;;;;;11.87;10.53;;;;;;;21.39;72.21;100327.94;1750607;79;21056;-73
2021/08/25 07:52:59;;;;;;;12.80;11.33;;;;;;;21.40;72.15;100326.84;1757111;81;21117;-74
2021/08/25 07:55:26;;;;;;;12.43;11.13;;;;;;;21.52;71.93;100329.02;1761099;81;21568;-73
2021/08/25 07:57:52;;;;;;;11.80;9.60;;;;;;;21.66;71.52;100327.34;1755302;81;21049;-73
2021/08/25 08:00:21;;;;;;;13.13;11.23;;;;;;;21.84;70.61;100314.34;1756844;81;21113;-74
2021/08/25 08:02:48;;;;;;;11.67;10.00;;;;;;;21.94;69.72;100312.52;1752971;80;21030;-73
2021/08/25 08:05:14;;;;;;;15.57;10.50;;;;;;;22.02;69.60;100313.57;1745909;81;21124;-73
2021/08/25 08:07:43;;;;;;;11.27;9.90;;;;;;;22.14;69.36;100327.15;1754327;81;21100;-74
2021/08/25 08:10:11;;;;;;;12.80;10.40;;;;;;;22.30;68.87;100314.25;1754138;81;21637;-73
2021/08/25 08:12:41;;;;;;;12.43;9.70;;;;;;;22.38;67.69;100308.70;1747904;81;21500;-75
2021/08/25 08:15:13;;;;;;;11.40;9.57;;;;;;;22.46;67.32;100305.05;1717203;82;21542;-77
2021/08/25 08:17:46;;;;;;;12.30;9.93;;;;;;;22.63;66.78;100294.45;1751455;81;21011;-76
2021/08/25 08:20:17;;;;;;;13.37;10.37;;;;;;;22.73;65.69;100309.52;1744922;81;21537;-76
2021/08/25 08:22:43;;;;;;;13.10;10.07;;;;;;;22.83;64.60;100302.22;1755341;81;21057;-76
2021/08/25 08:25:14;;;;;;;12.70;10.07;;;;;;;22.87;65.11;100302.34;1754217;81;21101;-75
2021/08/25 08:27:51;;;;;;;11.03;9.80;;;;;;;22.97;65.15;100302.43;1758381;79;21533;-74
2021/08/25 08:30:15;;;;;;;10.97;9.57;;;;;;;23.07;65.31;100299.23;1753762;79;21128;-74
2021/08/25 08:32:41;;;;;;;11.57;9.83;;;;;;;23.18;64.56;100297.01;1753232;81;21093;-75
2021/08/25 08:35:09;;;;;;;11.80;9.67;;;;;;;23.18;63.71;100300.30;1755677;81;21640;-76
2021/08/25 08:37:46;;;;;;;12.23;9.50;;;;;;;23.11;62.89;100302.27;1755826;81;21533;-75
2021/08/25 08:40:14;;;;;;;12.63;10.17;;;;;;;22.97;62.54;100303.25;1764994;79;21047;-75
2021/08/25 08:42:43;;;;;;;14.10;10.93;;;;;;;22.79;63.19;100308.72;1755203;81;21065;-74
2021/08/25 08:45:11;;;;;;;11.73;10.47;;;;;;;22.68;63.59;100305.69;1746704;79;21007;-75
2021/08/25 08:47:37;;;;;;;11.70;10.37;;;;;;;22.58;64.01;100306.96;1751323;81;21041;-75
2021/08/25 08:50:10;;;;;;;13.83;10.35;;;;;;;22.60;64.01;100309.33;1762232;81;21849;-74
2021/08/25 08:52:37;;;;;;;12.07;10.40;;;;;;;22.58;64.13;100301.52;1761103;81;21637;-75
2021/08/25 08:55:05;;;;;;;14.10;10.33;;;;;;;22.53;64.46;100304.47;1754859;79;21559;-73
2021/08/25 08:57:31;;;;;;;12.03;9.93;;;;;;;22.56;64.96;100299.70;1744782;79;20946;-74
2021/08/25 09:00:04;;;;;;;12.20;10.20;;;;;;;22.60;65.01;100302.52;1745828;81;20905;-75
2021/08/25 09:02:44;;;;;;;12.43;10.13;;;;;;;22.63;65.19;100301.83;1742846;81;20912;-75
2021/08/25 09:05:31;;;;;;;13.05;10.35;;;;;;;22.66;65.34;100306.02;1759703;79;21023;-74
2021/08/25 09:08:01;;;;;;;13.20;10.90;;;;;;;22.68;65.93;100296.95;1754131;79;21014;-76
2021/08/25 09:10:38;;;;;;;11.50;9.90;;;;;;;22.76;65.95;100289.77;1749738;79;21007;-73
2021/08/25 09:13:08;;;;;;;11.87;10.53;;;;;;;22.85;65.99;100290.42;1754243;79;20987;-73
2021/08/25 09:15:42;;;;;;;12.60;10.73;;;;;;;23.02;65.79;100289.36;1747652;79;21180;-74
2021/08/25 09:18:12;;;;;;;13.47;11.20;;;;;;;23.16;65.61;100291.67;1746852;81;21048;-74
2021/08/25 09:20:46;;;;;;;11.95;10.70;;;;;;;23.35;65.54;100277.39;1753390;79;20990;-74
2021/08/25 09:23:21;;;;;;;11.73;9.90;;;;;;;23.58;65.12;100281.09;1758413;79;20911;-74
2021/08/25 09:25:59;;;;;;;12.40;10.50;;;;;;;23.82;63.72;100283.45;1735084;79;21001;-77
2021/08/25 09:28:36;;;;;;;11.23;10.03;;;;;;;24.05;62.61;100276.23;1755160;79;21103;-73
2021/08/25 09:31:07;;;;;;;9.73;8.43;;;;;;;24.23;61.24;100275.84;1747136;81;21066;-76
2021/08/25 09:33:45;;;;;;;11.27;9.90;;;;;;;24.32;60.21;100273.71;1760891;81;21942;-76
2021/08/25 09:36:16;;;;;;;12.13;10.23;;;;;;;24.35;60.62;100273.00;1748007;79;21011;-75
2021/08/25 09:38:56;;;;;;;11.30;10.00;;;;;;;24.48;60.46;100263.56;1757066;81;21158;-75
2021/08/25 09:41:24;;;;;;;11.73;9.43;;;;;;;24.67;60.22;100262.75;1750178;81;21082;-75
2021/08/25 09:43:56;;;;;;;10.93;9.20;;;;;;;24.85;59.24;100263.13;1712301;81;21057;-76
2021/08/25 09:46:25;;;;;;;11.18;9.65;;;;;;;24.84;58.19;100258.01;1717488;81;21160;-77
2021/08/25 09:48:57;;;;;;;14.47;10.20;;;;;;;24.76;58.51;100258.45;1751237;81;21090;-76
2021/08/25 09:51:37;;;;;;;11.47;10.00;;;;;;;24.78;59.03;100253.44;1753540;81;21013;-76
2021/08/25 09:54:07;;;;;;;10.50;9.07;;;;;;;24.73;58.45;100245.52;1755553;81;22686;-77
2021/08/25 09:56:36;;;;;;;11.57;10.35;;;;;;;24.64;59.24;100257.22;1756687;79;20986;-76
2021/08/25 09:59:05;;;;;;;12.60;9.93;;;;;;;24.55;59.02;100252.78;1746990;81;21200;-77
2021/08/25 10:01:39;;;;;;;10.90;9.07;;;;;;;24.52;59.10;100254.86;1763376;81;21137;-77
2021/08/25 10:04:11;;;;;;;12.33;9.83;;;;;;;24.49;59.38;100254.21;1765055;81;21089;-78
2021/08/25 10:06:40;;;;;;;12.37;9.70;;;;;;;24.50;59.84;100250.32;1753986;79;21474;-78
2021/08/25 10:09:08;;;;;;;11.10;9.23;;;;;;;24.53;59.60;100249.61;1749783;79;21049;-76
2021/08/25 10:11:52;;;;;;;11.60;9.20;;;;;;;24.59;59.34;100242.51;1747575;79;21238;-76
2021/08/25 10:14:24;;;;;;;11.07;9.80;;;;;;;24.59;58.74;100243.30;1724776;79;21045;-77
2021/08/25 10:16:52;;;;;;;11.60;9.87;;;;;;;24.57;58.51;100247.73;1722322;79;21655;-81
2021/08/25 10:19:41;;;;;;;10.53;9.43;;;;;;;24.59;58.47;100239.78;1775105;80;21579;-76
2021/08/25 10:22:24;;;;;;;11.60;9.83;;;;;;;24.61;58.53;100244.28;1748176;81;21636;-78
2021/08/25 10:24:58;;;;;;;10.95;9.75;;;;;;;24.47;58.73;100245.58;1736943;81;21093;-76
2021/08/25 10:27:29;;;;;;;10.83;9.73;;;;;;;24.36;58.58;100244.55;1743072;80;21042;-77
2021/08/25 10:30:16;;;;;;;11.60;9.45;;;;;;;24.31;59.25;100240.72;1736603;80;21627;-78
2021/08/25 10:32:58;;;;;;;11.03;9.57;;;;;;;24.23;59.56;100232.96;1752203;81;21157;-77
2021/08/25 10:35:33;;;;;;;10.97;8.97;;;;;;;24.28;59.65;100233.24;1739319;81;21014;-76
2021/08/25 10:38:23;;;;;;;10.73;9.63;;;;;;;24.33;59.46;100222.84;1736737;80;21640;-76
2021/08/25 10:41:03;;;;;;;10.00;8.85;;;;;;;24.43;59.36;100216.63;1747048;81;21059;-77
2021/08/25 10:43:36;;;;;;;10.80;9.10;;;;;;;24.55;59.24;100205.00;1749384;81;21082;-75
2021/08/25 10:46:06;;;;;;;10.30;8.80;;;;;;;24.71;58.84;100203.55;1750638;81;21127;-77
2021/08/25 10:48:46;;;;;;;10.05;8.43;;;;;;;24.88;58.02;100204.25;1743321;80;21141;-77
2021/08/25 10:51:33;;;;;;;9.83;8.57;;;;;;;25.06;57.49;100195.78;1735313;81;21102;-78
2021/08/25 10:54:06;;;;;;;10.83;9.20;;;;;;;25.28;57.34;100196.98;1726241;81;21070;-82
2021/08/25 10:56:44;;;;;;;9.80;8.80;;;;;;;25.43;56.92;100190.57;1729698;81;21002;-77
2021/08/25 10:59:21;;;;;;;9.27;8.37;;;;;;;25.61;56.04;100193.60;1734347;81;21118;-77
2021/08/25 11:01:59;;;;;;;11.50;9.70;;;;;;;25.78;56.09;100190.92;1732670;81;21054;-77
2021/08/25 11:04:24;;;;;;;9.50;8.23;;;;;;;25.93;54.79;100198.21;1743036;81;21137;-78
2021/08/25 11:06:58;;;;;;;10.20;9.10;;;;;;;25.97;54.17;100191.42;1745012;81;21035;-78
2021/08/25 11:09:37;;;;;;;9.93;8.77;;;;;;;25.94;54.44;100194.89;1742642;81;21156;-78
2021/08/25 11:12:11;;;;;;;10.60;9.00;;;;;;;25.92;54.01;100188.41;1746867;81;21875;-78
2021/08/25 11:14:55;;;;;;;9.77;8.77;;;;;;;25.84;53.99;100192.21;1745108;81;21089;-76
2021/08/25 11:17:31;;;;;;;10.13;8.67;;;;;;;25.73;54.35;100184.38;1730761;81;21062;-77
2021/08/25 11:20:09;;;;;;;11.03;8.83;;;;;;;25.66;54.47;100185.06;1737670;80;21541;-78
2021/08/25 11:22:44;;;;;;;8.70;7.70;;;;;;;25.58;54.82;100175.19;1733171;81;21065;-78